Time;durP1;ratioP1;P1;durP2;ratioP2;P2;SDS_P1;SDS_P2;PMS_P1;PMS_P2;Temp;Humidity;BMP_temperature;BMP_pressure;BME280_temperature;BME280_humidity;BME280_pressure;Samples;Min_cycle;Max_cycle;Signal;HPM_P1;HPM_P2
2021/12/15 00:02:26;;;;;;;;;;;1.50;86.30;;;;;;5087400;27;84687;-40
2021/12/15 00:04:53;;;;;;;;;;;1.50;86.30;;;;;;5087544;27;81967;-41
2021/12/15 00:07:19;;;;;;;;;;;1.50;86.30;;;;;;5090412;27;84163;-42
2021/12/15 00:09:45;;;;;;;;;;;1.50;86.30;;;;;;5087671;27;82032;-40
2021/12/15 00:12:13;;;;;;;;;;;1.50;86.30;;;;;;5087407;27;83909;-42
2021/12/15 00:14:39;;;;;;;;;;;1.50;86.30;;;;;;5087797;27;83718;-41
2021/12/15 00:17:05;;;;;;;;;;;1.50;86.20;;;;;;5087340;27;82099;-41
2021/12/15 00:19:30;;;;;;;;;;;1.50;86.20;;;;;;5087338;27;83997;-42
2021/12/15 00:21:57;;;;;;;;;;;1.50;86.30;;;;;;5086887;27;85657;-42
2021/12/15 00:24:23;;;;;;;;;;;1.50;86.30;;;;;;5087545;27;82179;-41
2021/12/15 00:26:48;;;;;;;;;;;1.50;86.30;;;;;;5090191;27;83889;-40
2021/12/15 00:29:14;;;;;;;;;;;1.50;86.30;;;;;;5087493;27;82145;-42
2021/12/15 00:31:42;;;;;;;;;;;1.50;86.30;;;;;;5087363;27;84394;-40
2021/12/15 00:34:08;;;;;;;;;;;1.50;86.30;;;;;;5087158;27;84323;-41
2021/12/15 00:36:34;;;;;;;;;;;1.50;86.20;;;;;;5087592;27;82031;-42
2021/12/15 00:39:01;;;;;;;;;;;1.50;86.30;;;;;;5087835;27;84218;-42
2021/12/15 00:41:26;;;;;;;;;;;1.50;86.20;;;;;;5087027;27;84351;-40
2021/12/15 00:43:52;;;;;;;;;;;1.50;86.20;;;;;;5087281;27;81988;-41
2021/12/15 00:46:18;;;;;;;;;;;1.50;86.30;;;;;;5086330;27;83963;-42
2021/12/15 00:48:45;;;;;;;;;;;1.50;86.30;;;;;;5089817;27;84425;-42
2021/12/15 00:51:11;;;;;;;;;;;1.50;86.30;;;;;;5087093;27;83635;-40
2021/12/15 00:53:36;;;;;;;;;;;1.50;86.50;;;;;;5087129;27;83223;-41
2021/12/15 00:56:02;;;;;;;;;;;1.50;86.80;;;;;;5086988;27;82021;-41
2021/12/15 00:58:28;;;;;;;;;;;1.50;86.30;;;;;;5086555;27;83929;-42
2021/12/15 01:00:55;;;;;;;;;;;1.50;86.20;;;;;;5086716;27;84478;-40
2021/12/15 01:03:22;;;;;;;;;;;1.50;86.30;;;;;;5087447;27;81330;-42
2021/12/15 01:05:49;;;;;;;;;;;1.50;86.20;;;;;;5087100;27;81957;-42
2021/12/15 01:08:18;;;;;;;;;;;1.50;86.30;;;;;;5086721;27;84678;-40
2021/12/15 01:10:59;;;;;;;;;;;1.50;86.40;;;;;;5089164;27;82916;-42
2021/12/15 01:21:39;;;;;;;;;;;1.50;86.30;;;;;;5086922;27;82246;-40
2021/12/15 01:24:05;;;;;;;;;;;1.50;86.50;;;;;;5089493;27;82180;-42
2021/12/15 01:26:31;;;;;;;;;;;1.50;86.40;;;;;;5090159;27;82940;-41
2021/12/15 01:28:57;;;;;;;;;;;1.50;86.40;;;;;;5090493;27;83424;-42
2021/12/15 01:31:22;;;;;;;;;;;1.50;86.50;;;;;;5090339;27;82090;-42
2021/12/15 01:33:48;;;;;;;;;;;1.50;86.60;;;;;;5092704;27;83919;-42
2021/12/15 01:36:14;;;;;;;;;;;1.50;86.50;;;;;;5089566;27;82915;-41
2021/12/15 01:38:40;;;;;;;;;;;1.50;86.50;;;;;;5089789;27;84761;-41
2021/12/15 01:41:19;;;;;;;;;;;1.40;86.40;;;;;;5089888;27;84918;-40
2021/12/15 01:49:00;;;;;;;;;;;1.50;86.50;;;;;;5089359;27;82100;-41
2021/12/15 01:51:25;;;;;;;;;;;1.50;86.50;;;;;;5090142;27;82151;-41
2021/12/15 01:53:51;;;;;;;;;;;1.40;86.50;;;;;;5090357;27;84013;-41
2021/12/15 01:56:17;;;;;;;;;;;1.50;86.50;;;;;;5092186;27;84093;-42
2021/12/15 01:58:42;;;;;;;;;;;1.40;86.60;;;;;;5089074;27;83853;-42
2021/12/15 02:01:09;;;;;;;;;;;1.40;86.50;;;;;;5088580;27;86208;-42
2021/12/15 02:03:36;;;;;;;;;;;1.40;86.70;;;;;;5089474;27;81954;-41
2021/12/15 02:06:02;;;;;;;;;;;1.40;86.70;;;;;;5089843;27;83795;-41
2021/12/15 02:08:27;;;;;;;;;;;1.40;86.60;;;;;;5089269;27;84945;-40
2021/12/15 02:10:53;;;;;;;;;;;1.40;86.50;;;;;;5089379;27;82143;-41
2021/12/15 02:13:19;;;;;;;;;;;1.40;86.70;;;;;;5089522;27;84421;-42
2021/12/15 02:15:50;;;;;;;;;;;1.40;86.70;;;;;;5089243;27;84936;-42
2021/12/15 02:18:17;;;;;;;;;;;1.40;86.60;;;;;;5092175;27;81168;-40
2021/12/15 02:20:45;;;;;;;;;;;1.40;86.80;;;;;;5089109;27;84199;-42
2021/12/15 02:23:12;;;;;;;;;;;1.40;87.00;;;;;;5089265;27;81930;-42
2021/12/15 02:25:38;;;;;;;;;;;1.40;86.60;;;;;;5088714;27;83935;-42
2021/12/15 02:28:06;;;;;;;;;;;1.40;86.80;;;;;;5089204;27;84445;-40
2021/12/15 02:33:22;;;;;;;;;;;1.40;86.60;;;;;;5089058;27;81838;-40
2021/12/15 02:38:40;;;;;;;;;;;1.40;86.70;;;;;;5092118;27;81796;-42
2021/12/15 02:41:11;;;;;;;;;;;1.40;86.70;;;;;;5088707;27;84477;-42
2021/12/15 02:43:37;;;;;;;;;;;1.40;86.80;;;;;;5089402;27;81209;-42
2021/12/15 02:46:03;;;;;;;;;;;1.40;86.80;;;;;;5088939;27;83063;-42
2021/12/15 02:48:29;;;;;;;;;;;1.40;86.80;;;;;;5088712;27;84550;-41
2021/12/15 02:50:55;;;;;;;;;;;1.40;86.70;;;;;;5088252;27;82780;-41
2021/12/15 02:53:21;;;;;;;;;;;1.40;86.60;;;;;;5088879;27;84829;-40
2021/12/15 02:55:47;;;;;;;;;;;1.40;86.80;;;;;;5088537;27;84681;-42
2021/12/15 02:58:13;;;;;;;;;;;1.40;86.70;;;;;;5088184;27;82063;-40
2021/12/15 03:00:51;;;;;;;;;;;1.40;86.70;;;;;;5091178;27;83075;-40
2021/12/15 03:06:17;;;;;;;;;;;1.40;86.60;;;;;;5088313;27;81785;-42
2021/12/15 03:16:57;;;;;;;;;;;1.40;86.80;;;;;;5087628;27;83195;-41
2021/12/15 03:19:22;;;;;;;;;;;1.40;86.70;;;;;;5088683;27;82163;-42
2021/12/15 03:21:48;;;;;;;;;;;1.40;86.80;;;;;;5088567;27;83677;-42
2021/12/15 03:24:19;;;;;;;;;;;1.30;86.90;;;;;;5090885;27;84164;-41
2021/12/15 03:26:56;;;;;;;;;;;1.40;86.80;;;;;;5088380;27;83746;-41
2021/12/15 03:35:16;;;;;;;;;;;1.40;86.80;;;;;;5089127;27;81504;-41
2021/12/15 03:37:43;;;;;;;;;;;1.40;86.80;;;;;;5087839;27;84657;-41
2021/12/15 03:40:11;;;;;;;;;;;1.30;86.80;;;;;;5088053;27;82134;-42
2021/12/15 03:42:40;;;;;;;;;;;1.40;86.80;;;;;;5087374;27;83943;-40
2021/12/15 03:45:08;;;;;;;;;;;1.40;86.70;;;;;;5087036;27;83412;-42
2021/12/15 03:47:34;;;;;;;;;;;1.40;86.90;;;;;;5090822;27;81747;-42
2021/12/15 03:50:02;;;;;;;;;;;1.40;86.70;;;;;;5087870;27;83204;-42
2021/12/15 03:52:28;;;;;;;;;;;1.40;86.70;;;;;;5087693;27;82061;-42
2021/12/15 03:54:54;;;;;;;;;;;1.40;86.80;;;;;;5087950;27;82981;-42
2021/12/15 03:57:20;;;;;;;;;;;1.40;86.80;;;;;;5087939;27;82980;-42
2021/12/15 03:59:46;;;;;;;;;;;1.30;86.70;;;;;;5087498;27;81372;-42
2021/12/15 04:02:14;;;;;;;;;;;1.30;86.70;;;;;;5087713;27;83168;-42
2021/12/15 04:04:40;;;;;;;;;;;1.30;86.80;;;;;;5087635;27;82915;-41
2021/12/15 04:07:06;;;;;;;;;;;1.30;86.80;;;;;;5086916;27;82909;-41
2021/12/15 04:09:32;;;;;;;;;;;1.30;86.80;;;;;;5090535;27;84836;-41
2021/12/15 04:11:59;;;;;;;;;;;1.30;86.90;;;;;;5087693;27;81749;-40
2021/12/15 04:14:29;;;;;;;;;;;1.30;86.90;;;;;;5087804;27;83884;-41
2021/12/15 04:17:01;;;;;;;;;;;1.30;86.50;;;;;;5087523;27;84945;-42
2021/12/15 04:19:26;;;;;;;;;;;1.30;86.70;;;;;;5087479;27;81850;-42
2021/12/15 04:21:52;;;;;;;;;;;1.30;86.80;;;;;;5087565;27;83845;-41
2021/12/15 04:24:18;;;;;;;;;;;1.30;86.70;;;;;;5087871;27;83558;-41
2021/12/15 04:26:45;;;;;;;;;;;1.30;86.80;;;;;;5087351;27;81989;-41
2021/12/15 04:29:11;;;;;;;;;;;1.30;86.70;;;;;;5089878;27;84183;-41
2021/12/15 04:31:46;;;;;;;;;;;1.30;86.60;;;;;;5087085;27;83010;-40
2021/12/15 04:34:11;;;;;;;;;;;1.30;86.70;;;;;;5087068;27;84861;-40
2021/12/15 04:36:38;;;;;;;;;;;1.30;86.80;;;;;;5087093;27;84437;-42
2021/12/15 04:39:05;;;;;;;;;;;1.30;86.70;;;;;;5087218;27;81951;-41
2021/12/15 04:41:31;;;;;;;;;;;1.30;86.70;;;;;;5087501;27;84002;-40
2021/12/15 04:43:59;;;;;;;;;;;1.30;86.70;;;;;;5087181;27;84283;-40
2021/12/15 04:46:26;;;;;;;;;;;1.30;86.80;;;;;;5087352;27;82090;-41
2021/12/15 04:48:51;;;;;;;;;;;1.30;86.90;;;;;;5087589;27;81677;-42
2021/12/15 04:51:18;;;;;;;;;;;1.30;86.70;;;;;;5089730;27;84311;-40
2021/12/15 04:53:44;;;;;;;;;;;1.30;86.70;;;;;;5087173;27;84000;-40
2021/12/15 04:56:09;;;;;;;;;;;1.30;86.70;;;;;;5086329;27;84395;-41
2021/12/15 04:58:35;;;;;;;;;;;1.30;86.80;;;;;;5088920;27;81970;-41
2021/12/15 05:01:02;;;;;;;;;;;1.30;86.70;;;;;;5090647;27;83917;-41
2021/12/15 05:03:28;;;;;;;;;;;1.30;86.80;;;;;;5090266;27;84584;-40
2021/12/15 05:05:53;;;;;;;;;;;1.30;86.90;;;;;;5072339;27;82054;-41
2021/12/15 05:08:19;;;;;;;;;;;1.20;86.70;;;;;;5090418;27;84071;-42
2021/12/15 05:10:45;;;;;;;;;;;1.30;86.70;;;;;;5090527;27;84525;-42
2021/12/15 05:13:11;;;;;;;;;;;1.30;86.60;;;;;;5093936;27;81255;-41
2021/12/15 05:15:37;;;;;;;;;;;1.30;86.70;;;;;;5090106;27;84487;-40
2021/12/15 05:18:04;;;;;;;;;;;1.30;86.60;;;;;;5090367;27;82100;-42
2021/12/15 05:20:29;;;;;;;;;;;1.30;86.60;;;;;;5089761;27;82709;-41
2021/12/15 05:22:55;;;;;;;;;;;1.20;86.60;;;;;;5090355;27;84209;-41
2021/12/15 05:25:21;;;;;;;;;;;1.30;86.70;;;;;;5090256;27;82109;-42
2021/12/15 05:27:47;;;;;;;;;;;1.30;86.50;;;;;;5090360;27;83883;-41
2021/12/15 05:30:14;;;;;;;;;;;1.30;86.60;;;;;;5089988;27;84596;-42
2021/12/15 05:32:40;;;;;;;;;;;1.30;86.60;;;;;;5089865;27;82092;-42
2021/12/15 05:35:06;;;;;;;;;;;1.30;86.60;;;;;;5092654;27;84056;-42
2021/12/15 05:37:32;;;;;;;;;;;1.30;86.60;;;;;;5090706;27;81350;-42
2021/12/15 05:39:58;;;;;;;;;;;1.30;86.40;;;;;;5089705;27;83150;-40
2021/12/15 05:42:26;;;;;;;;;;;1.30;86.60;;;;;;5090017;27;84592;-41
2021/12/15 05:44:52;;;;;;;;;;;1.30;86.50;;;;;;5089328;27;82792;-41
2021/12/15 05:47:18;;;;;;;;;;;1.30;86.60;;;;;;5089780;27;85338;-41
2021/12/15 05:49:44;;;;;;;;;;;1.20;86.60;;;;;;5089775;27;82657;-42
2021/12/15 05:52:10;;;;;;;;;;;1.30;86.60;;;;;;5089826;27;81892;-42
2021/12/15 05:54:36;;;;;;;;;;;1.20;86.50;;;;;;5089752;27;83626;-42
2021/12/15 05:57:02;;;;;;;;;;;1.30;86.40;;;;;;5092293;27;84152;-42
2021/12/15 05:59:27;;;;;;;;;;;1.30;86.60;;;;;;5089165;27;83890;-41
2021/12/15 06:01:53;;;;;;;;;;;1.30;86.50;;;;;;5089917;27;82902;-41
2021/12/15 06:04:20;;;;;;;;;;;1.20;86.40;;;;;;5089323;27;82231;-42
2021/12/15 06:06:45;;;;;;;;;;;1.20;86.50;;;;;;5089719;27;83047;-40
2021/12/15 06:09:12;;;;;;;;;;;1.20;86.60;;;;;;5088281;27;84438;-41
2021/12/15 06:11:38;;;;;;;;;;;1.20;86.50;;;;;;5089597;27;81967;-42
2021/12/15 06:14:05;;;;;;;;;;;1.20;86.60;;;;;;5089599;27;83957;-41
2021/12/15 06:16:30;;;;;;;;;;;1.30;86.60;;;;;;5089111;27;84477;-42
2021/12/15 06:18:56;;;;;;;;;;;1.20;86.60;;;;;;5092487;27;82063;-40
2021/12/15 06:21:22;;;;;;;;;;;1.20;86.60;;;;;;5089136;27;84361;-41
2021/12/15 06:23:48;;;;;;;;;;;1.20;86.70;;;;;;5089494;27;82077;-41
2021/12/15 06:26:14;;;;;;;;;;;1.20;86.60;;;;;;5089813;27;83783;-40
2021/12/15 06:28:40;;;;;;;;;;;1.20;86.70;;;;;;5089116;27;84689;-40
2021/12/15 06:31:07;;;;;;;;;;;1.20;86.80;;;;;;5089224;27;82068;-42
2021/12/15 06:33:33;;;;;;;;;;;1.20;86.90;;;;;;5088523;27;83847;-43
2021/12/15 06:36:01;;;;;;;;;;;1.20;86.90;;;;;;5089124;27;85100;-42
2021/12/15 06:38:29;;;;;;;;;;;1.20;86.60;;;;;;5091922;27;82107;-42
2021/12/15 06:40:55;;;;;;;;;;;1.20;86.60;;;;;;5088880;27;84517;-41
2021/12/15 06:43:21;;;;;;;;;;;1.20;86.60;;;;;;5088995;27;82059;-41
2021/12/15 06:46:04;;;;;;;;;;;1.20;86.60;;;;;;5088860;27;83708;-41
2021/12/15 06:59:26;;;;;;;;;;;1.20;86.70;;;;;;5087820;27;82967;-42
2021/12/15 07:01:52;;;;;;;;;;;1.20;86.70;;;;;;5091366;27;84950;-42
2021/12/15 07:04:18;;;;;;;;;;;1.20;86.90;;;;;;5088550;27;81936;-40
2021/12/15 07:06:44;;;;;;;;;;;1.20;86.90;;;;;;5088593;27;83974;-41
2021/12/15 07:09:10;;;;;;;;;;;1.20;86.80;;;;;;5088650;27;83631;-40
2021/12/15 07:11:36;;;;;;;;;;;1.20;86.70;;;;;;5088609;27;81845;-40
2021/12/15 07:14:01;;;;;;;;;;;1.20;86.70;;;;;;5088632;27;83076;-41
2021/12/15 07:16:30;;;;;;;;;;;1.20;86.80;;;;;;5089184;27;81552;-41
2021/12/15 07:19:08;;;;;;;;;;;1.20;86.70;;;;;;5088348;27;82145;-42
2021/12/15 07:21:37;;;;;;;;;;;1.20;86.60;;;;;;5087321;27;82349;-40
2021/12/15 07:24:03;;;;;;;;;;;1.10;86.70;;;;;;5090344;27;85802;-40
2021/12/15 07:26:29;;;;;;;;;;;1.20;86.70;;;;;;5088261;27;84056;-42
2021/12/15 07:28:55;;;;;;;;;;;1.20;86.60;;;;;;5088183;27;84340;-42
2021/12/15 07:31:21;;;;;;;;;;;1.10;86.50;;;;;;5088690;27;82069;-42
2021/12/15 07:33:46;;;;;;;;;;;1.10;86.70;;;;;;5088123;27;83735;-40
2021/12/15 07:36:13;;;;;;;;;;;1.20;86.90;;;;;;5087862;27;84630;-42
2021/12/15 07:38:41;;;;;;;;;;;1.20;86.90;;;;;;5088198;27;82113;-40
2021/12/15 07:41:10;;;;;;;;;;;1.10;86.80;;;;;;5088542;27;82894;-41
2021/12/15 07:43:35;;;;;;;;;;;1.20;86.70;;;;;;5087985;27;84383;-41
2021/12/15 07:46:03;;;;;;;;;;;1.10;86.80;;;;;;5090850;27;82022;-41
2021/12/15 07:48:39;;;;;;;;;;;1.20;86.80;;;;;;5087144;27;85327;-42
2021/12/15 07:51:05;;;;;;;;;;;1.10;86.70;;;;;;5088321;27;81892;-42
2021/12/15 07:53:31;;;;;;;;;;;1.10;86.70;;;;;;5088211;27;84043;-40
2021/12/15 07:55:57;;;;;;;;;;;1.10;86.80;;;;;;5087856;27;83129;-42
2021/12/15 07:58:24;;;;;;;;;;;1.10;86.80;;;;;;5087187;27;82136;-41
2021/12/15 08:00:51;;;;;;;;;;;1.10;86.70;;;;;;5087754;27;84097;-40
2021/12/15 08:03:17;;;;;;;;;;;1.20;86.70;;;;;;5087378;27;84489;-41
2021/12/15 08:05:44;;;;;;;;;;;1.10;86.70;;;;;;5088424;27;81232;-41
2021/12/15 08:08:09;;;;;;;;;;;1.10;86.60;;;;;;5090368;27;82916;-42
2021/12/15 08:10:35;;;;;;;;;;;1.10;86.80;;;;;;5088015;27;81994;-42
2021/12/15 08:13:01;;;;;;;;;;;1.10;86.80;;;;;;5087041;27;83699;-41
2021/12/15 08:15:27;;;;;;;;;;;1.10;86.60;;;;;;5087447;27;84602;-42
2021/12/15 08:17:52;;;;;;;;;;;1.10;86.70;;;;;;5087603;27;82161;-40
2021/12/15 08:20:20;;;;;;;;;;;1.10;86.70;;;;;;5087346;27;83833;-42
2021/12/15 08:22:46;;;;;;;;;;;1.10;86.80;;;;;;5087580;27;84520;-42
2021/12/15 08:25:12;;;;;;;;;;;1.10;86.80;;;;;;5087460;27;82005;-42
2021/12/15 08:27:38;;;;;;;;;;;1.10;86.70;;;;;;5087373;27;83941;-41
2021/12/15 08:30:05;;;;;;;;;;;1.10;86.60;;;;;;5090479;27;84560;-42
2021/12/15 08:32:31;;;;;;;;;;;1.10;86.60;;;;;;5089801;27;82042;-42
2021/12/15 08:34:56;;;;;;;;;;;1.10;86.60;;;;;;5090856;27;84614;-42
2021/12/15 08:37:22;;;;;;;;;;;1.10;86.50;;;;;;5090457;27;83007;-41
2021/12/15 08:39:47;;;;;;;;;;;1.10;86.30;;;;;;5090991;27;84868;-40
2021/12/15 08:42:13;;;;;;;;;;;1.10;86.40;;;;;;5090799;27;84428;-42
2021/12/15 08:44:39;;;;;;;;;;;1.10;86.50;;;;;;5090914;27;81788;-43
2021/12/15 08:47:05;;;;;;;;;;;1.10;86.70;;;;;;5090814;27;83984;-42
2021/12/15 08:49:31;;;;;;;;;;;1.10;86.50;;;;;;5093419;27;84286;-41
2021/12/15 08:51:57;;;;;;;;;;;1.10;86.40;;;;;;5090931;27;84164;-42
2021/12/15 08:54:23;;;;;;;;;;;1.10;86.50;;;;;;5091253;27;83630;-40
2021/12/15 08:56:49;;;;;;;;;;;1.10;86.40;;;;;;5091004;27;82088;-41
2021/12/15 08:59:15;;;;;;;;;;;1.10;86.40;;;;;;5090580;27;82414;-40
2021/12/15 09:01:42;;;;;;;;;;;1.10;86.30;;;;;;5089490;27;85643;-42
2021/12/15 09:04:07;;;;;;;;;;;1.10;86.30;;;;;;5090464;27;82042;-41
2021/12/15 09:06:35;;;;;;;;;;;1.10;86.30;;;;;;5090700;27;84167;-42
2021/12/15 09:09:02;;;;;;;;;;;1.10;86.40;;;;;;5090227;27;83489;-42
2021/12/15 09:11:27;;;;;;;;;;;1.10;86.40;;;;;;5093380;27;82073;-42
2021/12/15 09:13:55;;;;;;;;;;;1.10;86.50;;;;;;5090184;27;84344;-42
2021/12/15 09:16:21;;;;;;;;;;;1.10;86.40;;;;;;5090465;27;82112;-40
2021/12/15 09:18:48;;;;;;;;;;;1.10;86.40;;;;;;5090673;27;84166;-40
2021/12/15 09:21:14;;;;;;;;;;;1.10;86.30;;;;;;5090031;27;84271;-41
2021/12/15 09:23:40;;;;;;;;;;;1.10;86.20;;;;;;5090158;27;81868;-42
2021/12/15 09:26:06;;;;;;;;;;;1.10;86.10;;;;;;5089866;27;83509;-42
2021/12/15 09:28:32;;;;;;;;;;;1.10;86.10;;;;;;5089956;27;84321;-41
2021/12/15 09:30:58;;;;;;;;;;;1.10;86.10;;;;;;5090128;27;82074;-40
2021/12/15 09:33:26;;;;;;;;;;;1.10;86.10;;;;;;5093035;27;84064;-41
2021/12/15 09:35:52;;;;;;;;;;;1.10;86.20;;;;;;5090237;27;82133;-42
2021/12/15 09:38:19;;;;;;;;;;;1.10;86.20;;;;;;5090110;27;83861;-41
2021/12/15 09:40:46;;;;;;;;;;;1.00;86.20;;;;;;5086365;27;88243;-40
2021/12/15 09:43:12;;;;;;;;;;;1.00;86.20;;;;;;5086248;27;86228;-42
2021/12/15 10:21:25;;;;;;;;;;;1.00;86.60;;;;;;5025505;28;89699;-40
2021/12/15 10:23:51;;;;;;;;;;;1.00;86.50;;;;;;5022589;28;89448;-41
2021/12/15 10:26:17;;;;;;;;;;;1.00;86.40;;;;;;5052163;27;87190;-40
2021/12/15 10:28:48;;;;;;;;;;;1.00;86.30;;;;;;5085749;27;88838;-42
2021/12/15 10:31:14;;;;;;;;;;;1.00;86.60;;;;;;5085616;27;88540;-40
2021/12/15 10:33:51;;;;;;;;;;;1.00;86.40;;;;;;5085608;27;87134;-40
2021/12/15 10:36:23;;;;;;;;;;;1.00;86.30;;;;;;5086410;27;89151;-41
2021/12/15 10:38:50;;;;;;;;;;;1.00;86.30;;;;;;5085263;27;89549;-42
2021/12/15 10:41:20;;;;;;;;;;;1.00;86.50;;;;;;5085667;27;87104;-42
2021/12/15 10:43:55;;;;;;;;;;;1.00;86.80;;;;;;5087623;27;89030;-41
2021/12/15 10:46:27;;;;;;;;;;;1.00;86.40;;;;;;5085445;27;87140;-40
2021/12/15 10:48:56;;;;;;;;;;;1.00;86.60;;;;;;5085636;27;88903;-41
2021/12/15 10:51:31;;;;;;;;;;;1.00;86.70;;;;;;5085438;27;89700;-40
2021/12/15 10:53:58;;;;;;;;;;;1.00;86.60;;;;;;5085500;27;86963;-42
2021/12/15 10:56:26;;;;;;;;;;;1.00;86.60;;;;;;5085395;27;88908;-42
2021/12/15 10:58:53;;;;;;;;;;;1.00;86.80;;;;;;5062723;27;91006;-41
2021/12/15 11:01:37;;;;;;;;;;;0.90;86.80;;;;;;5065377;27;85995;-41
2021/12/15 11:04:12;;;;;;;;;;;1.00;86.70;;;;;;5067339;27;88206;-40
2021/12/15 11:06:38;;;;;;;;;;;1.00;86.70;;;;;;5064940;27;86903;-42
2021/12/15 11:09:14;;;;;;;;;;;1.00;86.70;;;;;;5063960;27;89404;-40
2021/12/15 11:12:00;;;;;;;;;;;1.00;86.80;;;;;;5064645;27;89470;-41
2021/12/15 11:14:30;;;;;;;;;;;0.90;86.80;;;;;;5064594;27;87115;-41
2021/12/15 11:17:10;;;;;;;;;;;0.90;86.70;;;;;;5064814;27;88988;-41
2021/12/15 11:19:38;;;;;;;;;;;0.90;86.90;;;;;;5064104;27;89450;-42
2021/12/15 11:22:24;;;;;;;;;;;0.90;86.80;;;;;;5064465;27;86877;-40
2021/12/15 11:24:49;;;;;;;;;;;0.90;86.70;;;;;;5063677;27;89432;-41
2021/12/15 11:27:18;;;;;;;;;;;0.90;86.70;;;;;;5066196;27;90057;-41
2021/12/15 11:29:44;;;;;;;;;;;1.00;86.80;;;;;;5064488;27;87859;-42
2021/12/15 11:32:28;;;;;;;;;;;0.90;86.80;;;;;;5064176;27;89547;-42
2021/12/15 11:35:08;;;;;;;;;;;0.90;87.00;;;;;;5063707;27;87984;-43
2021/12/15 11:37:52;;;;;;;;;;;0.90;86.90;;;;;;5064489;27;89950;-42
2021/12/15 11:40:22;;;;;;;;;;;0.90;87.60;;;;;;5063811;27;89763;-42
2021/12/15 11:42:48;;;;;;;;;;;0.90;86.80;;;;;;5064214;27;86833;-42
2021/12/15 11:45:14;;;;;;;;;;;0.90;86.90;;;;;;5064201;27;88267;-40
2021/12/15 11:47:40;;;;;;;;;;;0.90;87.00;;;;;;5063883;27;89392;-41
2021/12/15 11:50:07;;;;;;;;;;;0.90;87.00;;;;;;5067212;27;87099;-40
2021/12/15 11:52:38;;;;;;;;;;;0.90;87.00;;;;;;5064358;27;88814;-42
2021/12/15 11:55:03;;;;;;;;;;;0.90;87.10;;;;;;5064044;27;87131;-42
2021/12/15 11:57:29;;;;;;;;;;;0.90;87.00;;;;;;5063624;27;90861;-41
2021/12/15 12:00:07;;;;;;;;;;;0.90;87.10;;;;;;5080488;27;90495;-41
2021/12/15 12:02:36;;;;;;;;;;;0.90;87.00;;;;;;5084289;27;87046;-42
2021/12/15 12:05:10;;;;;;;;;;;0.90;87.00;;;;;;5084578;27;87888;-41
2021/12/15 12:07:59;;;;;;;;;;;0.90;87.00;;;;;;5083514;27;89549;-40
2021/12/15 12:10:32;;;;;;;;;;;0.90;87.00;;;;;;5070812;27;86979;-42
2021/12/15 12:13:06;;;;;;;;;;;0.90;87.10;;;;;;5086642;27;88959;-42
2021/12/15 12:15:33;;;;;;;;;;;0.90;87.00;;;;;;5082202;27;87324;-41
2021/12/15 12:18:02;;;;;;;;;;;0.90;87.20;;;;;;5084522;27;88917;-43
2021/12/15 12:20:28;;;;;;;;;;;1.10;86.10;;;;;;5083504;27;89196;-44
2021/12/15 12:22:55;;;;;;;;;;;1.20;85.10;;;;;;5084135;27;86987;-40
2021/12/15 12:25:24;;;;;;;;;;;1.20;84.40;;;;;;5083488;27;88763;-43
2021/12/15 12:27:50;;;;;;;;;;;1.30;83.40;;;;;;5083747;27;89841;-42
2021/12/15 12:30:24;;;;;;;;;;;1.40;83.30;;;;;;5083893;27;87115;-50
2021/12/15 12:32:50;;;;;;;;;;;1.40;83.30;;;;;;5084049;27;89030;-43
2021/12/15 12:35:18;;;;;;;;;;;1.40;82.70;;;;;;5086518;27;89592;-42
2021/12/15 12:37:43;;;;;;;;;;;1.40;82.80;;;;;;5084226;27;88190;-42
2021/12/15 12:40:16;;;;;;;;;;;1.40;83.00;;;;;;5083572;27;89656;-42
2021/12/15 12:42:42;;;;;;;;;;;1.40;83.10;;;;;;5084322;27;86372;-43
2021/12/15 12:45:20;;;;;;;;;;;1.40;82.70;;;;;;5083971;27;88321;-42
2021/12/15 12:59:25;;;;;;;;;;;1.30;83.00;;;;;;5085173;27;87036;-42
2021/12/15 13:01:51;;;;;;;;;;;1.40;83.00;;;;;;5083277;27;89515;-42
2021/12/15 13:04:16;;;;;;;;;;;1.30;83.60;;;;;;5082844;27;87099;-40
2021/12/15 13:06:43;;;;;;;;;;;1.30;83.90;;;;;;5083118;27;86917;-40
2021/12/15 13:09:16;;;;;;;;;;;1.20;84.50;;;;;;5083770;27;88599;-40
2021/12/15 13:11:46;;;;;;;;;;;1.20;84.60;;;;;;5083820;27;86941;-40
2021/12/15 13:14:14;;;;;;;;;;;1.20;84.70;;;;;;5083496;27;88408;-40
2021/12/15 13:16:40;;;;;;;;;;;1.20;84.70;;;;;;5082436;27;89553;-41
2021/12/15 13:19:24;;;;;;;;;;;1.20;84.80;;;;;;5087780;27;87121;-41
2021/12/15 13:30:24;;;;;;;;;;;1.10;85.30;;;;;;5086760;27;87248;-40
2021/12/15 13:32:49;;;;;;;;;;;1.10;85.10;;;;;;5086571;27;87127;-41
2021/12/15 13:35:26;;;;;;;;;;;1.10;85.00;;;;;;5087421;27;87354;-41
2021/12/15 13:37:59;;;;;;;;;;;1.10;85.10;;;;;;5086039;27;89710;-40
2021/12/15 13:40:43;;;;;;;;;;;1.10;85.30;;;;;;5086325;27;87133;-41
2021/12/15 13:43:29;;;;;;;;;;;1.10;85.60;;;;;;5088536;27;88783;-41
2021/12/15 13:45:54;;;;;;;;;;;1.20;85.50;;;;;;5086415;27;87110;-41
2021/12/15 13:48:40;;;;;;;;;;;1.10;85.30;;;;;;5086351;27;89006;-41
2021/12/15 13:51:05;;;;;;;;;;;1.10;85.40;;;;;;5085761;27;89061;-41
2021/12/15 13:53:32;;;;;;;;;;;1.10;85.40;;;;;;5086091;27;86976;-41
2021/12/15 13:55:57;;;;;;;;;;;1.10;86.00;;;;;;5085166;27;88408;-41
2021/12/15 13:58:23;;;;;;;;;;;1.20;84.80;;;;;;5084658;27;89904;-41
2021/12/15 14:00:51;;;;;;;;;;;1.30;83.70;;;;;;5086301;27;86295;-41
2021/12/15 14:03:25;;;;;;;;;;;1.40;83.40;;;;;;5085674;27;88306;-40
2021/12/15 14:05:57;;;;;;;;;;;1.40;83.70;;;;;;5087909;27;89309;-39
2021/12/15 14:08:29;;;;;;;;;;;1.30;83.80;;;;;;5085361;27;88697;-39
2021/12/15 14:10:56;;;;;;;;;;;1.30;83.80;;;;;;5085662;27;89768;-39
2021/12/15 14:13:35;;;;;;;;;;;1.30;83.70;;;;;;5084985;27;87273;-39
2021/12/15 14:16:00;;;;;;;;;;;1.30;83.20;;;;;;5086188;27;88050;-40
2021/12/15 14:18:27;;;;;;;;;;;1.30;84.50;;;;;;5085566;27;89676;-39
2021/12/15 14:20:53;;;;;;;;;;;1.30;84.20;;;;;;5085763;27;87070;-39
2021/12/15 14:23:21;;;;;;;;;;;1.30;84.00;;;;;;5085709;27;88827;-38
2021/12/15 14:25:48;;;;;;;;;;;1.30;83.50;;;;;;5086040;27;88725;-40
2021/12/15 14:28:13;;;;;;;;;;;1.30;85.00;;;;;;5088821;27;87118;-39
2021/12/15 14:30:41;;;;;;;;;;;1.30;85.20;;;;;;5084985;27;89872;-39
2021/12/15 14:33:19;;;;;;;;;;;1.30;84.40;;;;;;5085148;27;88027;-39
2021/12/15 14:35:45;;;;;;;;;;;1.30;83.80;;;;;;5085734;27;89573;-41
2021/12/15 14:38:11;;;;;;;;;;;1.30;84.00;;;;;;5085178;27;89586;-42
2021/12/15 14:40:36;;;;;;;;;;;1.30;84.40;;;;;;5084921;27;87126;-43
2021/12/15 14:43:02;;;;;;;;;;;1.20;84.90;;;;;;5084563;27;89092;-42
2021/12/15 14:45:28;;;;;;;;;;;1.20;85.00;;;;;;5085246;27;88721;-42
2021/12/15 14:47:53;;;;;;;;;;;1.10;85.40;;;;;;5085670;27;87121;-42
2021/12/15 14:50:19;;;;;;;;;;;1.10;85.40;;;;;;5087449;27;88869;-42
2021/12/15 14:52:52;;;;;;;;;;;1.10;85.60;;;;;;5082953;27;87312;-42
2021/12/15 14:55:24;;;;;;;;;;;1.10;85.70;;;;;;5082809;27;88157;-42
2021/12/15 14:57:49;;;;;;;;;;;1.00;86.00;;;;;;5081888;27;90878;-43
2021/12/15 15:00:16;;;;;;;;;;;1.00;85.90;;;;;;5083168;27;87303;-42
2021/12/15 15:02:48;;;;;;;;;;;1.00;86.10;;;;;;5083126;27;88617;-42
2021/12/15 15:05:13;;;;;;;;;;;1.00;86.20;;;;;;5083970;27;89068;-42
2021/12/15 15:07:41;;;;;;;;;;;1.00;86.50;;;;;;5085197;27;87137;-42
2021/12/15 15:10:11;;;;;;;;;;;1.00;86.40;;;;;;5087918;27;87406;-42
2021/12/15 15:12:39;;;;;;;;;;;1.00;86.50;;;;;;5085124;27;87148;-42
2021/12/15 15:15:04;;;;;;;;;;;0.90;86.40;;;;;;5085468;27;88805;-42
2021/12/15 15:17:35;;;;;;;;;;;0.90;86.80;;;;;;5084679;27;89259;-42
2021/12/15 15:20:12;;;;;;;;;;;0.90;86.60;;;;;;5085261;27;86701;-42
2021/12/15 15:22:37;;;;;;;;;;;0.90;86.70;;;;;;5084259;27;88870;-41
2021/12/15 15:25:05;;;;;;;;;;;0.90;86.90;;;;;;5084647;27;89728;-42
2021/12/15 15:27:30;;;;;;;;;;;0.90;86.80;;;;;;5085146;27;87129;-42
2021/12/15 15:29:57;;;;;;;;;;;0.90;86.70;;;;;;5084694;27;89047;-42
2021/12/15 15:32:28;;;;;;;;;;;0.90;87.00;;;;;;5087493;27;89317;-41
2021/12/15 15:34:55;;;;;;;;;;;0.90;87.00;;;;;;5084408;27;88297;-42
2021/12/15 15:37:23;;;;;;;;;;;0.90;87.60;;;;;;5084399;27;89596;-42
2021/12/15 15:40:04;;;;;;;;;;;0.90;86.80;;;;;;5085160;27;86314;-42
2021/12/15 15:42:29;;;;;;;;;;;0.80;87.10;;;;;;5083789;27;88322;-42
2021/12/15 15:44:55;;;;;;;;;;;0.80;87.10;;;;;;5084107;27;89659;-42
2021/12/15 15:47:22;;;;;;;;;;;0.90;87.00;;;;;;5083804;27;88114;-42
2021/12/15 15:49:52;;;;;;;;;;;0.80;87.00;;;;;;5084542;27;89748;-42
2021/12/15 15:52:18;;;;;;;;;;;0.80;87.30;;;;;;5084332;27;89473;-42
2021/12/15 15:54:43;;;;;;;;;;;0.80;87.50;;;;;;5087475;27;87104;-42
2021/12/15 15:57:09;;;;;;;;;;;0.80;87.30;;;;;;5084019;27;89984;-42
2021/12/15 15:59:36;;;;;;;;;;;0.80;87.40;;;;;;5083968;27;87124;-42
2021/12/15 16:02:04;;;;;;;;;;;0.80;87.30;;;;;;5084805;27;87086;-41
2021/12/15 16:04:30;;;;;;;;;;;0.80;87.30;;;;;;5084634;27;88349;-41
2021/12/15 16:06:55;;;;;;;;;;;0.80;87.40;;;;;;5084539;27;87088;-43
2021/12/15 16:09:24;;;;;;;;;;;0.80;87.30;;;;;;5084552;27;88979;-42
2021/12/15 16:11:52;;;;;;;;;;;0.80;87.30;;;;;;5083294;27;90645;-41
2021/12/15 16:14:18;;;;;;;;;;;0.80;87.20;;;;;;5084317;27;87145;-42
2021/12/15 16:17:01;;;;;;;;;;;0.80;87.30;;;;;;5086532;27;88765;-41
2021/12/15 16:19:30;;;;;;;;;;;0.80;87.40;;;;;;5084521;27;86917;-41